This is the latest recevied weather packets stored in our database for station/object IZ3VCM. If no packets are shown the sender has not sent any weather packets the latest 10 day(s).
| Time | Temp. | Humidity | Pressure | Rain* | Wind** | Luminosity | Snow |
|---|---|---|---|---|---|---|---|
| 1777886104 | 25° C | 51% | 1017.3 hPa | 0 mm | - | - | - |
| 1777885205 | 25° C | 52% | 1017.2 hPa | 0 mm | - | - | - |
| 1777884303 | 25° C | 53% | 1017.2 hPa | 0 mm | - | - | - |
| 1777883405 | 25° C | 56% | 1017.3 hPa | 0 mm | - | - | - |
| 1777882503 | 23.33° C | 58% | 1017.2 hPa | 0 mm | - | - | - |
| 1777881606 | 23.33° C | 60% | 1017.2 hPa | 0 mm | - | - | - |
| 1777880703 | 22.22° C | 63% | 1017.1 hPa | 0 mm | - | - | - |
| 1777879806 | 20.56° C | 66% | 1017.2 hPa | 0 mm | - | - | - |
| 1777878904 | 20.56° C | 67% | 1017.1 hPa | 0 mm | - | - | - |
| 1777878006 | 20° C | 72% | 1017.1 hPa | 0 mm | - | - | - |
| 1777877104 | 18.33° C | 76% | 1017.1 hPa | 0 mm | - | - | - |
| 1777846504 | 13.33° C | 83% | 1016.4 hPa | 0 mm | - | - | - |
| 1777845606 | 13.33° C | 82% | 1016.2 hPa | 0 mm | - | - | - |
| 1777844704 | 13.89° C | 81% | 1016.1 hPa | 0 mm | - | - | - |
| 1777843806 | 13.89° C | 79% | 1016.1 hPa | 0 mm | - | - | - |
| 1777842903 | 14.44° C | 78% | 1016.1 hPa | 0 mm | - | - | - |
| 1777842005 | 15.56° C | 75% | 1016.1 hPa | 0 mm | - | - | - |
| 1777841104 | 16.11° C | 74% | 1016.2 hPa | 0 mm | - | - | - |
| 1777840206 | 16.67° C | 72% | 1016.2 hPa | 0 mm | - | - | - |
| 1777839303 | 16.67° C | 71% | 1016.1 hPa | 0 mm | - | - | - |
| 1777838405 | 17.22° C | 69% | 1016.1 hPa | 0 mm | - | - | - |
| 1777837503 | 17.78° C | 67% | 1015.9 hPa | 0 mm | - | - | - |
| 1777836606 | 18.33° C | 66% | 1016.1 hPa | 0 mm | - | - | - |
| 1777835704 | 18.89° C | 63% | 1015.9 hPa | 0 mm | - | - | - |
| 1777834805 | 19.44° C | 61% | 1015.7 hPa | 0 mm | - | - | - |
* Rain latest hour (hover to see other rain measurements)
** Current wind speed in m/s (hover to see current wind gust speed)